sensor_id;sensor_type;location;lat;lon;timestamp;temperature;humidity
318;DHT22;146;53.448;10.228;2024-02-16T00:02:15;11.50;1.00
318;DHT22;146;53.448;10.228;2024-02-16T00:05:05;11.40;1.00
318;DHT22;146;53.448;10.228;2024-02-16T00:07:54;11.40;1.00
318;DHT22;146;53.448;10.228;2024-02-16T00:10:42;11.40;1.00
318;DHT22;146;53.448;10.228;2024-02-16T00:13:30;11.40;1.00
318;DHT22;146;53.448;10.228;2024-02-16T00:16:18;11.30;1.00
318;DHT22;146;53.448;10.228;2024-02-16T00:19:05;11.30;1.00
318;DHT22;146;53.448;10.228;2024-02-16T00:21:52;11.30;1.00
318;DHT22;146;53.448;10.228;2024-02-16T00:24:40;11.30;1.00
318;DHT22;146;53.448;10.228;2024-02-16T00:27:27;11.30;1.00
318;DHT22;146;53.448;10.228;2024-02-16T00:30:14;11.40;1.00
318;DHT22;146;53.448;10.228;2024-02-16T00:33:04;11.30;1.00
318;DHT22;146;53.448;10.228;2024-02-16T00:35:53;11.40;1.00
318;DHT22;146;53.448;10.228;2024-02-16T00:38:40;11.40;1.00
318;DHT22;146;53.448;10.228;2024-02-16T00:41:28;11.40;1.00
318;DHT22;146;53.448;10.228;2024-02-16T00:44:16;11.30;1.00
318;DHT22;146;53.448;10.228;2024-02-16T00:47:03;11.30;1.00
318;DHT22;146;53.448;10.228;2024-02-16T00:49:51;11.20;1.00
318;DHT22;146;53.448;10.228;2024-02-16T00:52:38;11.10;1.00
318;DHT22;146;53.448;10.228;2024-02-16T00:55:26;11.20;1.00
318;DHT22;146;53.448;10.228;2024-02-16T00:58:14;11.10;1.00
318;DHT22;146;53.448;10.228;2024-02-16T01:01:01;11.10;1.00
318;DHT22;146;53.448;10.228;2024-02-16T01:03:49;11.10;1.00
318;DHT22;146;53.448;10.228;2024-02-16T01:06:37;11.20;1.00
318;DHT22;146;53.448;10.228;2024-02-16T01:09:24;11.20;1.00
318;DHT22;146;53.448;10.228;2024-02-16T01:12:12;11.20;1.00
318;DHT22;146;53.448;10.228;2024-02-16T01:15:01;11.20;1.00
318;DHT22;146;53.448;10.228;2024-02-16T01:17:48;11.20;1.00
318;DHT22;146;53.448;10.228;2024-02-16T01:20:35;11.20;1.00
318;DHT22;146;53.448;10.228;2024-02-16T01:23:22;11.20;1.00
318;DHT22;146;53.448;10.228;2024-02-16T01:26:10;11.20;1.00
318;DHT22;146;53.448;10.228;2024-02-16T01:28:57;11.10;1.00
318;DHT22;146;53.448;10.228;2024-02-16T01:31:46;11.10;1.00
318;DHT22;146;53.448;10.228;2024-02-16T01:34:33;11.10;1.00
318;DHT22;146;53.448;10.228;2024-02-16T01:37:20;11.10;1.00
318;DHT22;146;53.448;10.228;2024-02-16T01:40:08;11.10;1.00
318;DHT22;146;53.448;10.228;2024-02-16T01:42:59;11.20;1.00
318;DHT22;146;53.448;10.228;2024-02-16T01:45:46;11.10;1.00
318;DHT22;146;53.448;10.228;2024-02-16T01:48:35;11.20;1.00
318;DHT22;146;53.448;10.228;2024-02-16T01:51:23;11.10;1.00
318;DHT22;146;53.448;10.228;2024-02-16T01:54:11;11.10;1.00
318;DHT22;146;53.448;10.228;2024-02-16T01:56:59;11.10;1.00
318;DHT22;146;53.448;10.228;2024-02-16T01:59:47;11.00;1.00
318;DHT22;146;53.448;10.228;2024-02-16T02:02:36;11.10;1.00
318;DHT22;146;53.448;10.228;2024-02-16T02:05:24;11.10;1.00
318;DHT22;146;53.448;10.228;2024-02-16T02:08:12;11.00;1.00
318;DHT22;146;53.448;10.228;2024-02-16T02:11:00;10.90;1.00
318;DHT22;146;53.448;10.228;2024-02-16T02:13:48;11.00;1.00
318;DHT22;146;53.448;10.228;2024-02-16T02:16:35;11.00;1.00
318;DHT22;146;53.448;10.228;2024-02-16T02:19:23;10.90;1.00
318;DHT22;146;53.448;10.228;2024-02-16T02:22:14;10.90;1.00
318;DHT22;146;53.448;10.228;2024-02-16T02:25:01;10.90;1.00
318;DHT22;146;53.448;10.228;2024-02-16T02:27:48;10.80;1.00
318;DHT22;146;53.448;10.228;2024-02-16T02:30:35;10.90;1.00
318;DHT22;146;53.448;10.228;2024-02-16T02:33:23;10.90;1.00
318;DHT22;146;53.448;10.228;2024-02-16T02:36:10;10.80;1.00
318;DHT22;146;53.448;10.228;2024-02-16T02:38:59;10.80;1.00
318;DHT22;146;53.448;10.228;2024-02-16T02:41:47;10.80;1.00
318;DHT22;146;53.448;10.228;2024-02-16T02:44:34;10.80;1.00
318;DHT22;146;53.448;10.228;2024-02-16T02:47:21;10.80;1.00
318;DHT22;146;53.448;10.228;2024-02-16T02:50:09;10.80;1.00
318;DHT22;146;53.448;10.228;2024-02-16T02:52:56;10.80;1.00
318;DHT22;146;53.448;10.228;2024-02-16T02:55:44;10.80;1.00
318;DHT22;146;53.448;10.228;2024-02-16T02:58:32;10.80;1.00
318;DHT22;146;53.448;10.228;2024-02-16T03:01:19;10.80;1.00
318;DHT22;146;53.448;10.228;2024-02-16T03:04:07;10.80;1.00
318;DHT22;146;53.448;10.228;2024-02-16T03:06:55;10.80;1.00
318;DHT22;146;53.448;10.228;2024-02-16T03:09:42;10.80;1.00
318;DHT22;146;53.448;10.228;2024-02-16T03:12:31;10.80;1.00
318;DHT22;146;53.448;10.228;2024-02-16T03:15:19;10.80;1.00
318;DHT22;146;53.448;10.228;2024-02-16T03:18:06;10.80;1.00
318;DHT22;146;53.448;10.228;2024-02-16T03:20:54;10.80;1.00
318;DHT22;146;53.448;10.228;2024-02-16T03:23:41;10.80;1.00
318;DHT22;146;53.448;10.228;2024-02-16T03:26:28;10.80;1.00
318;DHT22;146;53.448;10.228;2024-02-16T03:29:17;10.90;1.00
318;DHT22;146;53.448;10.228;2024-02-16T03:32:04;10.90;1.00
318;DHT22;146;53.448;10.228;2024-02-16T03:34:51;10.90;1.00
318;DHT22;146;53.448;10.228;2024-02-16T03:37:38;11.00;1.00
318;DHT22;146;53.448;10.228;2024-02-16T03:40:26;11.00;1.00
318;DHT22;146;53.448;10.228;2024-02-16T03:43:13;10.90;1.00
318;DHT22;146;53.448;10.228;2024-02-16T03:46:02;10.80;1.00
318;DHT22;146;53.448;10.228;2024-02-16T03:48:49;10.80;1.00
318;DHT22;146;53.448;10.228;2024-02-16T03:51:36;10.80;1.00
318;DHT22;146;53.448;10.228;2024-02-16T03:54:23;10.70;1.00
318;DHT22;146;53.448;10.228;2024-02-16T03:57:10;10.60;1.00
318;DHT22;146;53.448;10.228;2024-02-16T03:59:58;10.70;1.00
318;DHT22;146;53.448;10.228;2024-02-16T04:02:47;10.70;1.00
318;DHT22;146;53.448;10.228;2024-02-16T04:05:34;10.70;1.00
318;DHT22;146;53.448;10.228;2024-02-16T04:08:21;10.70;1.00
318;DHT22;146;53.448;10.228;2024-02-16T04:11:11;10.70;1.00
318;DHT22;146;53.448;10.228;2024-02-16T04:13:58;10.70;1.00
318;DHT22;146;53.448;10.228;2024-02-16T04:16:45;10.80;1.00
318;DHT22;146;53.448;10.228;2024-02-16T04:19:33;10.80;1.00
318;DHT22;146;53.448;10.228;2024-02-16T04:22:23;10.80;1.00
318;DHT22;146;53.448;10.228;2024-02-16T04:25:10;10.80;1.00
318;DHT22;146;53.448;10.228;2024-02-16T04:27:57;10.80;1.00
318;DHT22;146;53.448;10.228;2024-02-16T04:30:44;10.90;1.00
318;DHT22;146;53.448;10.228;2024-02-16T04:33:31;11.00;1.00
318;DHT22;146;53.448;10.228;2024-02-16T04:36:19;11.00;1.00
318;DHT22;146;53.448;10.228;2024-02-16T04:39:07;11.00;1.00
318;DHT22;146;53.448;10.228;2024-02-16T04:41:55;11.10;1.00
318;DHT22;146;53.448;10.228;2024-02-16T04:44:43;11.20;1.00
318;DHT22;146;53.448;10.228;2024-02-16T04:47:30;11.20;1.00
318;DHT22;146;53.448;10.228;2024-02-16T04:50:17;11.30;1.00
318;DHT22;146;53.448;10.228;2024-02-16T04:53:05;11.30;1.00
318;DHT22;146;53.448;10.228;2024-02-16T04:55:52;11.40;1.00
318;DHT22;146;53.448;10.228;2024-02-16T04:58:40;11.40;1.00
318;DHT22;146;53.448;10.228;2024-02-16T05:01:28;11.40;1.00
318;DHT22;146;53.448;10.228;2024-02-16T05:04:15;11.50;1.00
318;DHT22;146;53.448;10.228;2024-02-16T05:09:51;11.50;1.00
318;DHT22;146;53.448;10.228;2024-02-16T05:12:43;11.60;1.00
318;DHT22;146;53.448;10.228;2024-02-16T05:15:31;11.60;1.00
318;DHT22;146;53.448;10.228;2024-02-16T05:18:21;11.60;1.00
318;DHT22;146;53.448;10.228;2024-02-16T05:21:08;11.70;1.00
318;DHT22;146;53.448;10.228;2024-02-16T05:23:56;11.70;1.00
318;DHT22;146;53.448;10.228;2024-02-16T05:26:45;11.70;1.00
318;DHT22;146;53.448;10.228;2024-02-16T05:29:35;11.80;1.00
318;DHT22;146;53.448;10.228;2024-02-16T05:32:22;11.70;1.00
318;DHT22;146;53.448;10.228;2024-02-16T05:35:09;11.80;1.00
318;DHT22;146;53.448;10.228;2024-02-16T05:38:00;11.70;1.00
318;DHT22;146;53.448;10.228;2024-02-16T05:40:52;11.80;1.00
318;DHT22;146;53.448;10.228;2024-02-16T05:43:44;11.70;1.00
318;DHT22;146;53.448;10.228;2024-02-16T05:46:31;11.70;1.00
318;DHT22;146;53.448;10.228;2024-02-16T05:49:18;11.70;1.00
318;DHT22;146;53.448;10.228;2024-02-16T05:52:06;11.70;1.00
318;DHT22;146;53.448;10.228;2024-02-16T05:55:07;11.60;1.00
318;DHT22;146;53.448;10.228;2024-02-16T05:57:54;11.70;1.00
318;DHT22;146;53.448;10.228;2024-02-16T06:00:43;11.70;1.00
318;DHT22;146;53.448;10.228;2024-02-16T06:03:32;11.70;1.00
318;DHT22;146;53.448;10.228;2024-02-16T06:06:20;11.60;1.00
318;DHT22;146;53.448;10.228;2024-02-16T06:09:07;11.60;1.00
318;DHT22;146;53.448;10.228;2024-02-16T06:11:54;11.60;1.00
318;DHT22;146;53.448;10.228;2024-02-16T06:14:41;11.60;1.00
318;DHT22;146;53.448;10.228;2024-02-16T06:17:30;11.50;1.00
318;DHT22;146;53.448;10.228;2024-02-16T06:20:17;11.50;1.00
318;DHT22;146;53.448;10.228;2024-02-16T06:23:04;11.50;1.00
318;DHT22;146;53.448;10.228;2024-02-16T06:25:52;11.50;1.00
318;DHT22;146;53.448;10.228;2024-02-16T06:28:39;11.50;1.00
318;DHT22;146;53.448;10.228;2024-02-16T06:31:26;11.50;1.00
318;DHT22;146;53.448;10.228;2024-02-16T06:34:14;11.50;1.00
318;DHT22;146;53.448;10.228;2024-02-16T06:37:02;11.50;1.00
318;DHT22;146;53.448;10.228;2024-02-16T06:39:49;11.40;1.00
318;DHT22;146;53.448;10.228;2024-02-16T06:42:36;11.50;1.00
318;DHT22;146;53.448;10.228;2024-02-16T06:45:24;11.40;1.00
318;DHT22;146;53.448;10.228;2024-02-16T06:48:11;11.30;1.00
318;DHT22;146;53.448;10.228;2024-02-16T06:51:02;11.30;1.00
318;DHT22;146;53.448;10.228;2024-02-16T06:53:49;11.40;1.00
318;DHT22;146;53.448;10.228;2024-02-16T06:56:37;11.40;1.00
318;DHT22;146;53.448;10.228;2024-02-16T06:59:24;11.40;1.00
318;DHT22;146;53.448;10.228;2024-02-16T07:02:11;11.30;1.00
318;DHT22;146;53.448;10.228;2024-02-16T07:05:00;11.30;1.00
318;DHT22;146;53.448;10.228;2024-02-16T07:07:48;11.30;1.00
318;DHT22;146;53.448;10.228;2024-02-16T07:10:36;11.30;1.00
318;DHT22;146;53.448;10.228;2024-02-16T07:13:23;11.30;1.00
318;DHT22;146;53.448;10.228;2024-02-16T07:16:28;11.40;1.00
318;DHT22;146;53.448;10.228;2024-02-16T07:19:16;11.30;1.00
318;DHT22;146;53.448;10.228;2024-02-16T07:22:03;11.30;1.00
318;DHT22;146;53.448;10.228;2024-02-16T07:24:53;11.30;1.00
318;DHT22;146;53.448;10.228;2024-02-16T07:27:40;11.20;1.00
318;DHT22;146;53.448;10.228;2024-02-16T07:30:28;11.20;1.00
318;DHT22;146;53.448;10.228;2024-02-16T07:33:15;11.20;1.00
318;DHT22;146;53.448;10.228;2024-02-16T07:36:02;11.20;1.00
318;DHT22;146;53.448;10.228;2024-02-16T07:38:50;11.20;1.00
318;DHT22;146;53.448;10.228;2024-02-16T07:41:38;11.20;1.00
318;DHT22;146;53.448;10.228;2024-02-16T07:44:27;11.20;1.00
318;DHT22;146;53.448;10.228;2024-02-16T07:47:14;11.20;1.00
318;DHT22;146;53.448;10.228;2024-02-16T07:50:02;11.20;1.00
318;DHT22;146;53.448;10.228;2024-02-16T07:52:51;11.30;1.00
318;DHT22;146;53.448;10.228;2024-02-16T07:55:43;11.40;1.00
318;DHT22;146;53.448;10.228;2024-02-16T07:58:31;11.40;1.00
318;DHT22;146;53.448;10.228;2024-02-16T08:01:18;11.50;1.00
318;DHT22;146;53.448;10.228;2024-02-16T08:04:05;11.50;1.00
318;DHT22;146;53.448;10.228;2024-02-16T08:06:52;11.50;1.00
318;DHT22;146;53.448;10.228;2024-02-16T08:09:43;11.60;1.00
318;DHT22;146;53.448;10.228;2024-02-16T08:12:30;11.70;1.00
318;DHT22;146;53.448;10.228;2024-02-16T08:15:19;11.80;1.00
318;DHT22;146;53.448;10.228;2024-02-16T08:18:08;11.80;1.00
318;DHT22;146;53.448;10.228;2024-02-16T08:20:57;11.90;1.00
318;DHT22;146;53.448;10.228;2024-02-16T08:23:45;11.90;1.00
318;DHT22;146;53.448;10.228;2024-02-16T08:26:33;12.00;1.00
318;DHT22;146;53.448;10.228;2024-02-16T08:29:20;12.20;1.00
318;DHT22;146;53.448;10.228;2024-02-16T08:32:09;12.20;1.00
318;DHT22;146;53.448;10.228;2024-02-16T08:34:56;12.30;1.00
318;DHT22;146;53.448;10.228;2024-02-16T08:37:44;12.40;1.00
318;DHT22;146;53.448;10.228;2024-02-16T08:40:31;12.40;1.00
318;DHT22;146;53.448;10.228;2024-02-16T08:43:18;12.50;1.00
318;DHT22;146;53.448;10.228;2024-02-16T08:46:05;12.50;1.00
318;DHT22;146;53.448;10.228;2024-02-16T08:48:55;12.50;1.00
318;DHT22;146;53.448;10.228;2024-02-16T08:51:42;12.60;1.00
318;DHT22;146;53.448;10.228;2024-02-16T08:54:29;12.50;1.00
318;DHT22;146;53.448;10.228;2024-02-16T08:57:16;12.60;1.00
318;DHT22;146;53.448;10.228;2024-02-16T09:00:04;12.70;1.00
318;DHT22;146;53.448;10.228;2024-02-16T09:02:51;12.70;1.00
318;DHT22;146;53.448;10.228;2024-02-16T09:05:40;12.70;1.00
318;DHT22;146;53.448;10.228;2024-02-16T09:08:29;12.80;1.00
318;DHT22;146;53.448;10.228;2024-02-16T09:11:18;12.90;1.00
318;DHT22;146;53.448;10.228;2024-02-16T09:14:06;12.90;1.00
318;DHT22;146;53.448;10.228;2024-02-16T09:16:53;13.00;1.00
318;DHT22;146;53.448;10.228;2024-02-16T09:19:40;13.10;1.00
318;DHT22;146;53.448;10.228;2024-02-16T09:22:28;13.20;1.00
318;DHT22;146;53.448;10.228;2024-02-16T09:25:18;13.20;1.00
318;DHT22;146;53.448;10.228;2024-02-16T09:28:05;13.30;1.00
318;DHT22;146;53.448;10.228;2024-02-16T09:30:53;13.30;1.00
318;DHT22;146;53.448;10.228;2024-02-16T09:33:40;13.40;1.00
318;DHT22;146;53.448;10.228;2024-02-16T09:36:28;13.50;1.00
318;DHT22;146;53.448;10.228;2024-02-16T09:39:16;13.50;1.00
318;DHT22;146;53.448;10.228;2024-02-16T09:42:03;13.40;1.00
318;DHT22;146;53.448;10.228;2024-02-16T09:44:51;13.50;1.00
318;DHT22;146;53.448;10.228;2024-02-16T09:47:39;13.50;1.00
318;DHT22;146;53.448;10.228;2024-02-16T09:50:26;13.50;1.00
318;DHT22;146;53.448;10.228;2024-02-16T09:53:14;13.60;1.00
318;DHT22;146;53.448;10.228;2024-02-16T09:56:05;13.60;1.00
318;DHT22;146;53.448;10.228;2024-02-16T09:58:54;13.60;1.00
318;DHT22;146;53.448;10.228;2024-02-16T10:01:42;13.60;1.00
318;DHT22;146;53.448;10.228;2024-02-16T10:04:29;13.60;1.00
318;DHT22;146;53.448;10.228;2024-02-16T10:07:16;13.70;1.00
318;DHT22;146;53.448;10.228;2024-02-16T10:10:04;13.70;1.00
318;DHT22;146;53.448;10.228;2024-02-16T10:13:01;13.80;1.00
318;DHT22;146;53.448;10.228;2024-02-16T10:15:48;13.80;1.00
318;DHT22;146;53.448;10.228;2024-02-16T10:18:35;13.90;1.00
318;DHT22;146;53.448;10.228;2024-02-16T10:21:26;13.90;1.00
318;DHT22;146;53.448;10.228;2024-02-16T10:24:14;14.00;1.00
318;DHT22;146;53.448;10.228;2024-02-16T10:27:01;14.10;1.00
318;DHT22;146;53.448;10.228;2024-02-16T10:29:53;14.20;1.00
318;DHT22;146;53.448;10.228;2024-02-16T10:32:41;14.30;1.00
318;DHT22;146;53.448;10.228;2024-02-16T10:35:29;14.40;1.00
318;DHT22;146;53.448;10.228;2024-02-16T10:38:16;14.40;1.00
318;DHT22;146;53.448;10.228;2024-02-16T10:41:04;14.50;1.00
318;DHT22;146;53.448;10.228;2024-02-16T10:43:56;14.70;1.00
318;DHT22;146;53.448;10.228;2024-02-16T10:46:45;14.80;1.00
318;DHT22;146;53.448;10.228;2024-02-16T10:49:32;14.90;1.00
318;DHT22;146;53.448;10.228;2024-02-16T10:52:19;15.00;1.00
318;DHT22;146;53.448;10.228;2024-02-16T10:55:07;15.10;1.00
318;DHT22;146;53.448;10.228;2024-02-16T10:57:56;15.00;1.00
318;DHT22;146;53.448;10.228;2024-02-16T11:00:51;15.00;1.00
318;DHT22;146;53.448;10.228;2024-02-16T11:03:40;15.00;1.00
318;DHT22;146;53.448;10.228;2024-02-16T11:06:27;15.00;1.00
318;DHT22;146;53.448;10.228;2024-02-16T11:09:26;15.10;1.00
318;DHT22;146;53.448;10.228;2024-02-16T11:12:14;15.20;1.00
318;DHT22;146;53.448;10.228;2024-02-16T11:15:02;15.30;1.00
318;DHT22;146;53.448;10.228;2024-02-16T11:17:50;15.30;1.00
318;DHT22;146;53.448;10.228;2024-02-16T11:20:38;15.40;1.00
318;DHT22;146;53.448;10.228;2024-02-16T11:23:31;15.50;1.00
318;DHT22;146;53.448;10.228;2024-02-16T11:26:18;15.50;1.00
318;DHT22;146;53.448;10.228;2024-02-16T11:29:05;15.60;1.00
318;DHT22;146;53.448;10.228;2024-02-16T11:31:52;15.70;1.00
318;DHT22;146;53.448;10.228;2024-02-16T11:34:40;15.80;1.00
318;DHT22;146;53.448;10.228;2024-02-16T11:37:29;15.80;1.00
318;DHT22;146;53.448;10.228;2024-02-16T11:40:16;15.80;1.00
318;DHT22;146;53.448;10.228;2024-02-16T11:43:05;15.80;1.00
318;DHT22;146;53.448;10.228;2024-02-16T11:45:52;15.80;1.00
318;DHT22;146;53.448;10.228;2024-02-16T11:48:40;15.80;1.00
318;DHT22;146;53.448;10.228;2024-02-16T11:51:27;15.90;1.00
318;DHT22;146;53.448;10.228;2024-02-16T11:54:16;15.80;1.00
318;DHT22;146;53.448;10.228;2024-02-16T11:57:06;15.80;1.00
318;DHT22;146;53.448;10.228;2024-02-16T11:59:53;15.70;1.00
318;DHT22;146;53.448;10.228;2024-02-16T12:02:40;15.80;1.00
318;DHT22;146;53.448;10.228;2024-02-16T12:05:28;15.70;1.00
318;DHT22;146;53.448;10.228;2024-02-16T12:08:16;15.70;1.00
318;DHT22;146;53.448;10.228;2024-02-16T12:11:08;15.80;1.00
318;DHT22;146;53.448;10.228;2024-02-16T12:13:55;15.70;1.00
318;DHT22;146;53.448;10.228;2024-02-16T12:16:42;15.70;1.00
318;DHT22;146;53.448;10.228;2024-02-16T12:19:29;15.70;1.00
318;DHT22;146;53.448;10.228;2024-02-16T12:22:17;15.70;1.00
318;DHT22;146;53.448;10.228;2024-02-16T12:25:05;15.70;1.00
318;DHT22;146;53.448;10.228;2024-02-16T12:27:54;15.80;1.00
318;DHT22;146;53.448;10.228;2024-02-16T12:30:41;15.80;1.00
318;DHT22;146;53.448;10.228;2024-02-16T12:33:28;15.90;1.00
318;DHT22;146;53.448;10.228;2024-02-16T12:36:15;15.90;1.00
318;DHT22;146;53.448;10.228;2024-02-16T12:39:03;15.80;1.00
318;DHT22;146;53.448;10.228;2024-02-16T12:41:51;15.90;1.00
318;DHT22;146;53.448;10.228;2024-02-16T12:44:39;15.90;1.00
318;DHT22;146;53.448;10.228;2024-02-16T12:47:26;15.90;1.00
318;DHT22;146;53.448;10.228;2024-02-16T12:50:14;15.90;1.00
318;DHT22;146;53.448;10.228;2024-02-16T12:53:04;15.90;1.00
318;DHT22;146;53.448;10.228;2024-02-16T12:55:51;15.90;1.00
318;DHT22;146;53.448;10.228;2024-02-16T12:58:38;15.90;1.00
318;DHT22;146;53.448;10.228;2024-02-16T13:01:27;16.00;1.00
318;DHT22;146;53.448;10.228;2024-02-16T13:04:14;15.90;1.00
318;DHT22;146;53.448;10.228;2024-02-16T13:07:06;15.80;1.00
318;DHT22;146;53.448;10.228;2024-02-16T13:09:54;15.80;1.00
318;DHT22;146;53.448;10.228;2024-02-16T13:12:43;15.80;1.00
318;DHT22;146;53.448;10.228;2024-02-16T13:15:31;15.80;1.00
318;DHT22;146;53.448;10.228;2024-02-16T13:18:19;15.80;1.00
318;DHT22;146;53.448;10.228;2024-02-16T13:21:06;15.80;1.00
318;DHT22;146;53.448;10.228;2024-02-16T13:23:54;15.70;1.00
318;DHT22;146;53.448;10.228;2024-02-16T13:26:41;15.60;1.00
318;DHT22;146;53.448;10.228;2024-02-16T13:29:29;15.60;1.00
318;DHT22;146;53.448;10.228;2024-02-16T13:32:16;15.60;1.00
318;DHT22;146;53.448;10.228;2024-02-16T13:35:05;15.50;1.00
318;DHT22;146;53.448;10.228;2024-02-16T13:37:52;15.60;1.00
318;DHT22;146;53.448;10.228;2024-02-16T13:40:39;15.50;1.00
318;DHT22;146;53.448;10.228;2024-02-16T13:43:29;15.40;1.00
318;DHT22;146;53.448;10.228;2024-02-16T13:46:16;15.40;1.00
318;DHT22;146;53.448;10.228;2024-02-16T13:49:04;15.40;1.00
318;DHT22;146;53.448;10.228;2024-02-16T13:51:52;15.30;1.00
318;DHT22;146;53.448;10.228;2024-02-16T13:54:39;15.30;1.00
318;DHT22;146;53.448;10.228;2024-02-16T13:57:26;15.30;1.00
318;DHT22;146;53.448;10.228;2024-02-16T14:00:16;15.30;1.00
318;DHT22;146;53.448;10.228;2024-02-16T14:03:05;15.40;1.00
318;DHT22;146;53.448;10.228;2024-02-16T14:05:54;15.40;1.00
318;DHT22;146;53.448;10.228;2024-02-16T14:08:43;15.40;1.00
318;DHT22;146;53.448;10.228;2024-02-16T14:11:33;15.40;1.00
318;DHT22;146;53.448;10.228;2024-02-16T14:14:20;15.40;1.00
318;DHT22;146;53.448;10.228;2024-02-16T14:17:07;15.40;1.00
318;DHT22;146;53.448;10.228;2024-02-16T14:19:55;15.30;1.00
318;DHT22;146;53.448;10.228;2024-02-16T14:22:42;15.40;1.00
318;DHT22;146;53.448;10.228;2024-02-16T14:25:30;15.50;1.00
318;DHT22;146;53.448;10.228;2024-02-16T14:28:17;15.40;1.00
318;DHT22;146;53.448;10.228;2024-02-16T14:31:04;15.30;1.00
318;DHT22;146;53.448;10.228;2024-02-16T14:33:52;15.30;1.00
318;DHT22;146;53.448;10.228;2024-02-16T14:36:39;15.30;1.00
318;DHT22;146;53.448;10.228;2024-02-16T14:39:26;15.10;1.00
318;DHT22;146;53.448;10.228;2024-02-16T14:42:15;15.10;1.00
318;DHT22;146;53.448;10.228;2024-02-16T14:45:03;15.10;1.00
318;DHT22;146;53.448;10.228;2024-02-16T14:47:51;15.10;1.00
318;DHT22;146;53.448;10.228;2024-02-16T14:50:38;15.10;1.00
318;DHT22;146;53.448;10.228;2024-02-16T14:53:26;15.00;1.00
318;DHT22;146;53.448;10.228;2024-02-16T14:56:16;15.00;1.00
318;DHT22;146;53.448;10.228;2024-02-16T14:59:08;15.00;1.00
318;DHT22;146;53.448;10.228;2024-02-16T15:01:56;14.80;1.00
318;DHT22;146;53.448;10.228;2024-02-16T15:04:46;14.70;1.00
318;DHT22;146;53.448;10.228;2024-02-16T15:07:33;14.80;1.00
318;DHT22;146;53.448;10.228;2024-02-16T15:10:20;14.80;1.00
318;DHT22;146;53.448;10.228;2024-02-16T15:13:07;14.70;1.00
318;DHT22;146;53.448;10.228;2024-02-16T15:15:56;14.70;1.00
318;DHT22;146;53.448;10.228;2024-02-16T15:18:44;14.70;1.00
318;DHT22;146;53.448;10.228;2024-02-16T15:21:32;14.70;1.00
318;DHT22;146;53.448;10.228;2024-02-16T15:24:19;14.70;1.00
318;DHT22;146;53.448;10.228;2024-02-16T15:27:06;14.70;1.00
318;DHT22;146;53.448;10.228;2024-02-16T15:29:53;14.60;1.00
318;DHT22;146;53.448;10.228;2024-02-16T15:32:42;14.60;1.00
318;DHT22;146;53.448;10.228;2024-02-16T15:35:29;14.50;1.00
318;DHT22;146;53.448;10.228;2024-02-16T15:38:17;14.40;1.00
318;DHT22;146;53.448;10.228;2024-02-16T15:41:04;14.40;1.00
318;DHT22;146;53.448;10.228;2024-02-16T15:43:51;14.30;1.00
318;DHT22;146;53.448;10.228;2024-02-16T15:46:38;14.20;1.00
318;DHT22;146;53.448;10.228;2024-02-16T15:49:28;14.20;1.00
318;DHT22;146;53.448;10.228;2024-02-16T15:52:17;14.20;1.00
318;DHT22;146;53.448;10.228;2024-02-16T15:55:04;14.10;1.00
318;DHT22;146;53.448;10.228;2024-02-16T15:57:52;14.10;1.00
318;DHT22;146;53.448;10.228;2024-02-16T16:00:39;14.10;1.00
318;DHT22;146;53.448;10.228;2024-02-16T16:03:26;14.10;1.00
318;DHT22;146;53.448;10.228;2024-02-16T16:06:15;14.00;1.00
318;DHT22;146;53.448;10.228;2024-02-16T16:09:02;13.90;1.00
318;DHT22;146;53.448;10.228;2024-02-16T16:11:52;14.00;1.00
318;DHT22;146;53.448;10.228;2024-02-16T16:14:39;14.00;1.00
318;DHT22;146;53.448;10.228;2024-02-16T16:17:26;14.00;1.00
318;DHT22;146;53.448;10.228;2024-02-16T16:20:14;13.90;1.00
318;DHT22;146;53.448;10.228;2024-02-16T16:23:04;13.80;1.00
318;DHT22;146;53.448;10.228;2024-02-16T16:25:51;13.50;1.00
318;DHT22;146;53.448;10.228;2024-02-16T16:28:38;13.50;1.00
318;DHT22;146;53.448;10.228;2024-02-16T16:31:25;13.40;1.00
318;DHT22;146;53.448;10.228;2024-02-16T16:34:13;13.50;1.00
318;DHT22;146;53.448;10.228;2024-02-16T16:37:00;13.40;1.00
318;DHT22;146;53.448;10.228;2024-02-16T16:39:48;13.40;1.00
318;DHT22;146;53.448;10.228;2024-02-16T16:42:36;13.30;1.00
318;DHT22;146;53.448;10.228;2024-02-16T16:45:23;13.30;1.00
318;DHT22;146;53.448;10.228;2024-02-16T16:48:11;13.30;1.00
318;DHT22;146;53.448;10.228;2024-02-16T16:50:58;13.20;1.00
318;DHT22;146;53.448;10.228;2024-02-16T16:53:45;13.30;1.00
318;DHT22;146;53.448;10.228;2024-02-16T16:56:34;13.20;1.00
318;DHT22;146;53.448;10.228;2024-02-16T16:59:24;13.20;1.00
318;DHT22;146;53.448;10.228;2024-02-16T17:02:11;13.10;1.00
318;DHT22;146;53.448;10.228;2024-02-16T17:04:58;13.10;1.00
318;DHT22;146;53.448;10.228;2024-02-16T17:07:46;13.10;1.00
318;DHT22;146;53.448;10.228;2024-02-16T17:10:33;13.10;1.00
318;DHT22;146;53.448;10.228;2024-02-16T17:13:21;13.00;1.00
318;DHT22;146;53.448;10.228;2024-02-16T17:16:09;13.00;1.00
318;DHT22;146;53.448;10.228;2024-02-16T17:18:57;12.90;1.00
318;DHT22;146;53.448;10.228;2024-02-16T17:21:44;12.80;1.00
318;DHT22;146;53.448;10.228;2024-02-16T17:24:32;12.70;1.00
318;DHT22;146;53.448;10.228;2024-02-16T17:27:19;12.60;1.00
318;DHT22;146;53.448;10.228;2024-02-16T17:30:11;12.60;1.00
318;DHT22;146;53.448;10.228;2024-02-16T17:32:59;12.60;1.00
318;DHT22;146;53.448;10.228;2024-02-16T17:35:46;12.50;1.00
318;DHT22;146;53.448;10.228;2024-02-16T17:38:33;12.60;1.00
318;DHT22;146;53.448;10.228;2024-02-16T17:41:21;12.40;1.00
318;DHT22;146;53.448;10.228;2024-02-16T17:44:09;12.50;1.00
318;DHT22;146;53.448;10.228;2024-02-16T17:46:57;12.40;1.00
318;DHT22;146;53.448;10.228;2024-02-16T17:49:45;12.40;1.00
318;DHT22;146;53.448;10.228;2024-02-16T17:52:32;12.40;1.00
318;DHT22;146;53.448;10.228;2024-02-16T17:55:19;12.30;1.00
318;DHT22;146;53.448;10.228;2024-02-16T17:58:06;12.10;1.00
318;DHT22;146;53.448;10.228;2024-02-16T18:00:53;12.10;1.00
318;DHT22;146;53.448;10.228;2024-02-16T18:03:42;12.20;1.00
318;DHT22;146;53.448;10.228;2024-02-16T18:06:29;12.10;1.00
318;DHT22;146;53.448;10.228;2024-02-16T18:09:16;12.10;1.00
318;DHT22;146;53.448;10.228;2024-02-16T18:12:04;12.10;1.00
318;DHT22;146;53.448;10.228;2024-02-16T18:14:52;12.10;1.00
318;DHT22;146;53.448;10.228;2024-02-16T18:17:41;12.00;1.00
318;DHT22;146;53.448;10.228;2024-02-16T18:20:30;11.90;1.00
318;DHT22;146;53.448;10.228;2024-02-16T18:23:18;11.90;1.00
318;DHT22;146;53.448;10.228;2024-02-16T18:26:06;11.80;1.00
318;DHT22;146;53.448;10.228;2024-02-16T18:28:53;11.80;1.00
318;DHT22;146;53.448;10.228;2024-02-16T18:31:43;11.80;1.00
318;DHT22;146;53.448;10.228;2024-02-16T18:34:31;11.80;1.00
318;DHT22;146;53.448;10.228;2024-02-16T18:37:19;11.80;1.00
318;DHT22;146;53.448;10.228;2024-02-16T18:40:07;11.80;1.00
318;DHT22;146;53.448;10.228;2024-02-16T18:42:56;11.90;1.00
318;DHT22;146;53.448;10.228;2024-02-16T18:45:43;11.90;1.00
318;DHT22;146;53.448;10.228;2024-02-16T18:48:30;11.90;1.00
318;DHT22;146;53.448;10.228;2024-02-16T18:51:18;11.90;1.00
318;DHT22;146;53.448;10.228;2024-02-16T18:54:06;11.80;1.00
318;DHT22;146;53.448;10.228;2024-02-16T18:56:56;11.80;1.00